createdAt,value
2019-03-01T00:00:35.327Z,1005.25
2019-03-01T00:01:35.321Z,1005.26
2019-03-01T00:02:35.317Z,1005.21
2019-03-01T00:03:35.311Z,1005.20
2019-03-01T00:04:35.306Z,1005.19
2019-03-01T00:05:35.299Z,1005.16
2019-03-01T00:06:35.296Z,1005.16
2019-03-01T00:07:35.288Z,1005.15
2019-03-01T00:08:35.535Z,1005.18
2019-03-01T00:09:35.277Z,1005.19
2019-03-01T00:10:35.274Z,1005.16
2019-03-01T00:11:35.266Z,1005.21
2019-03-01T00:12:35.264Z,1005.16
2019-03-01T00:13:35.257Z,1005.19
2019-03-01T00:14:35.253Z,1005.20
2019-03-01T00:15:35.245Z,1005.16
2019-03-01T00:16:35.242Z,1005.17
2019-03-01T00:17:35.235Z,1005.14
2019-03-01T00:18:35.242Z,1005.14
2019-03-01T00:19:35.223Z,1005.16
2019-03-01T00:20:35.809Z,1005.14
2019-03-01T00:21:35.214Z,1005.15
2019-03-01T00:22:35.211Z,1005.08
2019-03-01T00:23:35.210Z,1005.08
2019-03-01T00:24:35.227Z,1005.10
2019-03-01T00:25:35.192Z,1005.06
2019-03-01T00:26:35.191Z,1005.06
2019-03-01T00:27:35.178Z,1004.99
2019-03-01T00:28:35.178Z,1005.00
2019-03-01T00:29:35.169Z,1004.97
2019-03-01T00:30:35.165Z,1004.97
2019-03-01T00:31:35.158Z,1004.99
2019-03-01T00:32:35.160Z,1005.01
2019-03-01T00:33:35.160Z,1005.00
2019-03-01T00:34:35.142Z,1005.01
2019-03-01T00:35:35.175Z,1004.97
2019-03-01T00:36:35.130Z,1004.97
2019-03-01T00:37:35.126Z,1004.98
2019-03-01T00:38:35.120Z,1004.99
2019-03-01T00:39:35.111Z,1004.98
2019-03-01T00:40:35.108Z,1004.96
2019-03-01T00:41:35.100Z,1004.95
2019-03-01T00:42:35.098Z,1004.94
2019-03-01T00:43:35.089Z,1004.93
2019-03-01T00:44:35.087Z,1004.90
2019-03-01T00:45:35.079Z,1004.91
2019-03-01T00:46:35.076Z,1004.89
2019-03-01T00:47:35.069Z,1004.86
2019-03-01T00:48:35.065Z,1004.83
2019-03-01T00:49:35.057Z,1004.78
2019-03-01T00:50:35.055Z,1004.80
2019-03-01T00:51:35.046Z,1004.80
2019-03-01T00:52:35.044Z,1004.76
2019-03-01T00:53:35.037Z,1004.79
2019-03-01T00:54:35.033Z,1004.78
2019-03-01T00:55:35.025Z,1004.78
2019-03-01T00:56:35.025Z,1004.80
2019-03-01T00:57:35.013Z,1004.80
2019-03-01T00:58:35.010Z,1004.78
2019-03-01T00:59:35.001Z,1004.73
2019-03-01T01:00:35.000Z,1004.74
2019-03-01T01:01:34.994Z,1004.71
2019-03-01T01:02:34.989Z,1004.72
2019-03-01T01:03:34.980Z,1004.75
2019-03-01T01:04:34.979Z,1004.71
2019-03-01T01:05:34.970Z,1004.68
2019-03-01T01:06:34.970Z,1004.66
2019-03-01T01:07:34.960Z,1004.66
2019-03-01T01:08:34.955Z,1004.70
2019-03-01T01:09:34.951Z,1004.69
2019-03-01T01:10:34.946Z,1004.69
2019-03-01T01:11:34.937Z,1004.65
2019-03-01T01:12:34.934Z,1004.63
2019-03-01T01:13:34.930Z,1004.63
2019-03-01T01:14:34.925Z,1004.64
2019-03-01T01:15:34.959Z,1004.62
2019-03-01T01:16:34.911Z,1004.63
2019-03-01T01:17:34.903Z,1004.63
2019-03-01T01:18:34.914Z,1004.59
2019-03-01T01:19:34.892Z,1004.57
2019-03-01T01:20:34.889Z,1004.55
2019-03-01T01:21:34.882Z,1004.59
2019-03-01T01:22:34.878Z,1004.53
2019-03-01T01:23:34.871Z,1004.54
2019-03-01T01:24:34.867Z,1004.53
2019-03-01T01:25:34.859Z,1004.49
2019-03-01T01:26:34.856Z,1004.51
2019-03-01T01:27:34.849Z,1004.49
2019-03-01T01:28:34.852Z,1004.47
2019-03-01T01:29:34.838Z,1004.49
2019-03-01T01:30:34.835Z,1004.46
2019-03-01T01:31:34.825Z,1004.44
2019-03-01T01:32:34.822Z,1004.44
2019-03-01T01:33:34.814Z,1004.42
2019-03-01T01:34:34.810Z,1004.43
2019-03-01T01:35:34.801Z,1004.42
2019-03-01T01:36:34.799Z,1004.42
2019-03-01T01:37:34.797Z,1004.39
2019-03-01T01:38:34.789Z,1004.39
2019-03-01T01:39:34.779Z,1004.37
2019-03-01T01:40:34.777Z,1004.38
2019-03-01T01:41:34.819Z,1004.37
2019-03-01T01:42:34.766Z,1004.41
2019-03-01T01:43:34.758Z,1004.36
2019-03-01T01:44:34.756Z,1004.33
2019-03-01T01:45:34.745Z,1004.35
2019-03-01T01:46:34.743Z,1004.34
2019-03-01T01:47:34.733Z,1004.32
2019-03-01T01:48:34.741Z,1004.35
2019-03-01T01:49:34.723Z,1004.32
2019-03-01T01:50:34.730Z,1004.27
2019-03-01T01:51:34.711Z,1004.28
2019-03-01T01:52:34.708Z,1004.27
2019-03-01T01:53:34.701Z,1004.26
2019-03-01T01:54:34.697Z,1004.24
2019-03-01T01:55:34.689Z,1004.21
2019-03-01T01:56:34.688Z,1004.24
2019-03-01T01:57:34.678Z,1004.24
2019-03-01T01:58:34.674Z,1004.19
2019-03-01T01:59:34.666Z,1004.23
2019-03-01T02:00:34.663Z,1004.22
2019-03-01T02:01:34.655Z,1004.24
2019-03-01T02:02:34.753Z,1004.24
2019-03-01T02:03:34.643Z,1004.24
2019-03-01T02:04:34.641Z,1004.24
2019-03-01T02:05:34.638Z,1004.16
2019-03-01T02:06:34.632Z,1004.22
2019-03-01T02:07:34.621Z,1004.17
2019-03-01T02:08:34.620Z,1004.16
2019-03-01T02:09:34.611Z,1004.14
2019-03-01T02:10:34.610Z,1004.21
2019-03-01T02:11:34.598Z,1004.17
2019-03-01T02:12:34.597Z,1004.17
2019-03-01T02:13:34.587Z,1004.18
2019-03-01T02:14:34.583Z,1004.15
2019-03-01T02:15:34.575Z,1004.13
2019-03-01T02:16:34.573Z,1004.10
2019-03-01T02:17:34.567Z,1004.08
2019-03-01T02:18:34.560Z,1004.07
2019-03-01T02:19:34.551Z,1004.09
2019-03-01T02:20:34.547Z,1004.07
2019-03-01T02:21:34.540Z,1004.03
2019-03-01T02:22:34.536Z,1004.03
2019-03-01T02:23:34.528Z,1004.06
2019-03-01T02:24:34.524Z,1004.05
2019-03-01T02:25:34.516Z,1004.02
2019-03-01T02:26:34.513Z,1004.02
2019-03-01T02:27:34.504Z,1004.03
2019-03-01T02:28:34.502Z,1003.99
2019-03-01T02:29:34.502Z,1003.97
2019-03-01T02:30:34.492Z,1003.95
2019-03-01T02:31:34.480Z,1003.96
2019-03-01T02:32:34.477Z,1003.96
2019-03-01T02:33:34.473Z,1003.98
2019-03-01T02:34:34.493Z,1004.00
2019-03-01T02:35:34.456Z,1003.99
2019-03-01T02:36:34.453Z,1004.03
2019-03-01T02:37:34.454Z,1004.03
2019-03-01T02:38:34.442Z,1004.02
2019-03-01T02:39:34.433Z,1003.99
2019-03-01T02:40:34.430Z,1003.98
2019-03-01T02:41:34.421Z,1003.99
2019-03-01T02:42:34.422Z,1003.95
2019-03-01T02:43:34.410Z,1003.90
2019-03-01T02:44:34.409Z,1003.92
2019-03-01T02:45:34.397Z,1003.91
2019-03-01T02:46:34.395Z,1003.90
2019-03-01T02:47:34.384Z,1003.84
2019-03-01T02:48:34.381Z,1003.85
2019-03-01T02:49:34.376Z,1003.88
2019-03-01T02:50:34.392Z,1003.85
2019-03-01T02:51:34.380Z,1003.84
2019-03-01T02:52:34.361Z,1003.84
2019-03-01T02:53:34.351Z,1003.85
2019-03-01T02:54:34.347Z,1003.85
2019-03-01T02:55:34.338Z,1003.84
2019-03-01T02:56:34.334Z,1003.78
2019-03-01T02:57:34.327Z,1003.81
2019-03-01T02:58:34.340Z,1003.80
2019-03-01T02:59:34.325Z,1003.84
2019-03-01T03:00:34.311Z,1003.84
2019-03-01T03:01:34.312Z,1003.83
2019-03-01T03:02:34.299Z,1003.83
2019-03-01T03:03:34.290Z,1003.85
2019-03-01T03:04:34.287Z,1003.84
2019-03-01T03:05:34.279Z,1003.82
2019-03-01T03:06:34.274Z,1003.86
2019-03-01T03:07:34.266Z,1003.87
2019-03-01T03:08:34.262Z,1003.86
2019-03-01T03:09:34.255Z,1003.87
2019-03-01T03:10:34.251Z,1003.86
2019-03-01T03:11:34.247Z,1003.88
2019-03-01T03:12:34.303Z,1003.88
2019-03-01T03:13:34.235Z,1003.90
2019-03-01T03:14:34.230Z,1003.89
2019-03-01T03:15:34.219Z,1003.90
2019-03-01T03:16:34.215Z,1003.91
2019-03-01T03:17:34.210Z,1003.91
2019-03-01T03:18:34.208Z,1003.92
2019-03-01T03:19:34.196Z,1003.91
2019-03-01T03:20:34.191Z,1003.89
2019-03-01T03:21:34.183Z,1003.89
2019-03-01T03:22:34.181Z,1003.89
2019-03-01T03:23:34.171Z,1003.90
2019-03-01T03:24:34.167Z,1003.93
2019-03-01T03:25:34.162Z,1003.93
2019-03-01T03:26:34.161Z,1003.91
2019-03-01T03:27:34.147Z,1003.87
2019-03-01T03:28:34.145Z,1003.88
2019-03-01T03:29:34.136Z,1003.85
2019-03-01T03:30:34.274Z,1003.83
2019-03-01T03:31:34.163Z,1003.81
2019-03-01T03:32:34.121Z,1003.80
2019-03-01T03:33:34.119Z,1003.81
2019-03-01T03:34:34.111Z,1003.86
2019-03-01T03:35:34.104Z,1003.81
2019-03-01T03:36:34.098Z,1003.78
2019-03-01T03:37:34.091Z,1003.80
2019-03-01T03:38:34.088Z,1003.83
2019-03-01T03:39:34.079Z,1003.80
2019-03-01T03:40:34.077Z,1003.78
2019-03-01T03:41:34.068Z,1003.78
2019-03-01T03:42:34.066Z,1003.83
2019-03-01T03:43:34.059Z,1003.81
2019-03-01T03:44:34.053Z,1003.80
2019-03-01T03:45:34.049Z,1003.86
2019-03-01T03:46:34.041Z,1003.83
2019-03-01T03:47:34.034Z,1003.83
2019-03-01T03:48:36.258Z,1003.83
2019-03-01T03:49:34.023Z,1003.81
2019-03-01T03:50:34.019Z,1003.80
2019-03-01T03:51:34.311Z,1003.81
2019-03-01T03:52:34.011Z,1003.80
2019-03-01T03:53:34.000Z,1003.78
2019-03-01T03:54:34.000Z,1003.78
2019-03-01T03:55:34.001Z,1003.74
2019-03-01T03:56:33.991Z,1003.74
2019-03-01T03:57:33.978Z,1003.74
2019-03-01T03:58:33.976Z,1003.80
2019-03-01T03:59:33.968Z,1003.79
2019-03-01T04:00:33.963Z,1003.78
2019-03-01T04:01:33.956Z,1003.78
2019-03-01T04:02:34.031Z,1003.77
2019-03-01T04:03:33.947Z,1003.78
2019-03-01T04:04:33.941Z,1003.78
2019-03-01T04:05:33.941Z,1003.75
2019-03-01T04:06:33.935Z,1003.76
2019-03-01T04:07:33.925Z,1003.70
2019-03-01T04:08:33.916Z,1003.75
2019-03-01T04:09:33.928Z,1003.73
2019-03-01T04:10:33.905Z,1003.71
2019-03-01T04:11:33.904Z,1003.74
2019-03-01T04:12:33.893Z,1003.73
2019-03-01T04:13:33.892Z,1003.77
2019-03-01T04:14:33.919Z,1003.69
2019-03-01T04:15:34.128Z,1003.72
2019-03-01T04:16:33.872Z,1003.72
2019-03-01T04:17:33.869Z,1003.70
2019-03-01T04:18:33.862Z,1003.70
2019-03-01T04:19:33.855Z,1003.72
2019-03-01T04:20:33.847Z,1003.71
2019-03-01T04:21:34.094Z,1003.70
2019-03-01T04:22:33.844Z,1003.72
2019-03-01T04:23:33.832Z,1003.72
2019-03-01T04:24:33.822Z,1003.74
2019-03-01T04:25:33.827Z,1003.72
2019-03-01T04:26:33.825Z,1003.73
2019-03-01T04:27:33.807Z,1003.75
2019-03-01T04:28:33.799Z,1003.74
2019-03-01T04:29:33.800Z,1003.76
2019-03-01T04:30:33.788Z,1003.77
2019-03-01T04:31:33.784Z,1003.78
2019-03-01T04:32:33.776Z,1003.79
2019-03-01T04:33:33.773Z,1003.78
2019-03-01T04:34:33.768Z,1003.77
2019-03-01T04:35:33.761Z,1003.77
2019-03-01T04:36:33.754Z,1003.76
2019-03-01T04:37:33.750Z,1003.78
2019-03-01T04:38:33.742Z,1003.75
2019-03-01T04:39:33.737Z,1003.75
2019-03-01T04:40:33.731Z,1003.71
2019-03-01T04:41:33.727Z,1003.74
2019-03-01T04:42:33.719Z,1003.71
2019-03-01T04:43:33.715Z,1003.68
2019-03-01T04:44:33.707Z,1003.63
2019-03-01T04:45:33.703Z,1003.63
2019-03-01T04:46:33.696Z,1003.58
2019-03-01T04:47:33.692Z,1003.53
2019-03-01T04:48:33.690Z,1003.54
2019-03-01T04:49:33.682Z,1003.51
2019-03-01T04:50:33.672Z,1003.49
2019-03-01T04:51:39.916Z,1003.52
2019-03-01T04:52:33.661Z,1003.48
2019-03-01T04:53:33.657Z,1003.55
2019-03-01T04:54:33.657Z,1003.52
2019-03-01T04:55:33.647Z,1003.56
2019-03-01T04:56:33.637Z,1003.55
2019-03-01T04:57:33.634Z,1003.56
2019-03-01T04:58:33.625Z,1003.57
2019-03-01T04:59:33.621Z,1003.59
2019-03-01T05:00:33.613Z,1003.61
2019-03-01T05:01:33.610Z,1003.64
2019-03-01T05:02:33.706Z,1003.66
2019-03-01T05:03:33.597Z,1003.70
2019-03-01T05:04:33.589Z,1003.71
2019-03-01T05:05:33.586Z,1003.69
2019-03-01T05:06:33.579Z,1003.71
2019-03-01T05:07:33.574Z,1003.72
2019-03-01T05:08:33.567Z,1003.77
2019-03-01T05:09:33.564Z,1003.76
2019-03-01T05:10:33.557Z,1003.79
2019-03-01T05:11:33.553Z,1003.83
2019-03-01T05:12:33.546Z,1003.82
2019-03-01T05:13:33.549Z,1003.82
2019-03-01T05:14:33.581Z,1003.79
2019-03-01T05:15:33.533Z,1003.84
2019-03-01T05:16:33.526Z,1003.84
2019-03-01T05:17:33.519Z,1003.82
2019-03-01T05:18:33.514Z,1003.84
2019-03-01T05:19:33.509Z,1003.84
2019-03-01T05:20:33.501Z,1003.83
2019-03-01T05:21:33.498Z,1003.82
2019-03-01T05:22:33.491Z,1003.88
2019-03-01T05:23:33.494Z,1003.88
2019-03-01T05:24:33.524Z,1003.86
2019-03-01T05:25:33.500Z,1003.90
2019-03-01T05:26:33.469Z,1003.89
2019-03-01T05:27:33.465Z,1003.88
2019-03-01T05:28:33.463Z,1003.86
2019-03-01T05:29:33.456Z,1003.89
2019-03-01T05:30:33.448Z,1003.88
2019-03-01T05:31:33.445Z,1003.84
2019-03-01T05:32:33.436Z,1003.86
2019-03-01T05:33:33.433Z,1003.89
2019-03-01T05:34:33.428Z,1003.84
2019-03-01T05:35:33.422Z,1003.85
2019-03-01T05:36:33.415Z,1003.84
2019-03-01T05:37:33.413Z,1003.84
2019-03-01T05:38:33.404Z,1003.84
2019-03-01T05:39:33.401Z,1003.85
2019-03-01T05:40:33.396Z,1003.85
2019-03-01T05:41:33.394Z,1003.85
2019-03-01T05:42:33.384Z,1003.83
2019-03-01T05:43:33.386Z,1003.76
2019-03-01T05:44:33.373Z,1003.80
2019-03-01T05:45:33.380Z,1003.82
2019-03-01T05:46:33.369Z,1003.80
2019-03-01T05:47:33.359Z,1003.81
2019-03-01T05:48:33.354Z,1003.81
2019-03-01T05:49:33.350Z,1003.85
2019-03-01T05:50:33.342Z,1003.85
2019-03-01T05:51:33.348Z,1003.85
2019-03-01T05:52:33.331Z,1003.88
2019-03-01T05:53:33.330Z,1003.91
2019-03-01T05:54:33.324Z,1003.84
2019-03-01T05:55:33.319Z,1003.85
2019-03-01T05:56:33.331Z,1003.84
2019-03-01T05:57:33.322Z,1003.87
2019-03-01T05:58:33.300Z,1003.90
2019-03-01T05:59:33.296Z,1003.91
2019-03-01T06:00:33.294Z,1003.94
2019-03-01T06:01:33.285Z,1003.93
2019-03-01T06:02:33.289Z,1003.96
2019-03-01T06:03:33.277Z,1003.96
2019-03-01T06:04:33.267Z,1004.03
2019-03-01T06:05:33.264Z,1004.02
2019-03-01T06:06:33.257Z,1004.04
2019-03-01T06:07:33.253Z,1004.06
2019-03-01T06:08:33.262Z,1004.06
2019-03-01T06:09:33.256Z,1003.98
2019-03-01T06:10:33.235Z,1004.00
2019-03-01T06:11:33.235Z,1004.00
2019-03-01T06:12:33.253Z,1003.99
2019-03-01T06:13:33.221Z,1004.05
2019-03-01T06:14:33.218Z,1004.06
2019-03-01T06:15:33.210Z,1004.07
2019-03-01T06:16:33.225Z,1004.06
2019-03-01T06:17:33.200Z,1004.05
2019-03-01T06:18:33.202Z,1004.07
2019-03-01T06:19:33.192Z,1004.04
2019-03-01T06:20:33.196Z,1004.07
2019-03-01T06:21:33.190Z,1004.10
2019-03-01T06:22:33.172Z,1004.08
2019-03-01T06:23:33.176Z,1004.08
2019-03-01T06:24:33.182Z,1004.11
2019-03-01T06:25:33.159Z,1004.10
2019-03-01T06:26:33.451Z,1004.07
2019-03-01T06:27:33.147Z,1004.10
2019-03-01T06:28:33.143Z,1004.12
2019-03-01T06:29:33.142Z,1004.10
2019-03-01T06:30:33.132Z,1004.12
2019-03-01T06:31:33.127Z,1004.08
2019-03-01T06:32:33.130Z,1004.14
2019-03-01T06:33:33.117Z,1004.09
2019-03-01T06:34:33.110Z,1004.11
2019-03-01T06:35:33.109Z,1004.15
2019-03-01T06:36:33.100Z,1004.14
2019-03-01T06:37:33.098Z,1004.14
2019-03-01T06:38:33.095Z,1004.16
2019-03-01T06:42:43.853Z,1004.11
2019-03-01T06:43:43.848Z,1004.14
2019-03-01T06:44:43.840Z,1004.14
2019-03-01T06:45:43.838Z,1004.14
2019-03-01T06:46:43.831Z,1004.16
2019-03-01T06:47:43.830Z,1004.20
2019-03-01T06:48:43.822Z,1004.19
2019-03-01T06:49:43.817Z,1004.23
2019-03-01T06:50:43.811Z,1004.20
2019-03-01T06:51:43.808Z,1004.19
2019-03-01T06:52:43.809Z,1004.18
2019-03-01T06:53:44.100Z,1004.20
2019-03-01T06:54:43.791Z,1004.22
2019-03-01T06:55:43.789Z,1004.23
2019-03-01T06:56:43.783Z,1004.27
2019-03-01T06:57:43.778Z,1004.24
2019-03-01T06:58:43.784Z,1004.25
2019-03-01T06:59:43.771Z,1004.30
2019-03-01T07:00:50.101Z,1004.29
2019-03-01T07:01:43.759Z,1004.36
2019-03-01T07:02:43.755Z,1004.34
2019-03-01T07:03:43.753Z,1004.36
2019-03-01T07:04:43.743Z,1004.33
2019-03-01T07:05:43.741Z,1004.36
2019-03-01T07:06:43.734Z,1004.38
2019-03-01T07:07:43.732Z,1004.38
2019-03-01T07:08:43.734Z,1004.42
2019-03-01T07:09:43.725Z,1004.44
2019-03-01T07:10:43.715Z,1004.44
2019-03-01T07:11:43.713Z,1004.43
2019-03-01T07:12:43.743Z,1004.46
2019-03-01T07:13:43.702Z,1004.49
2019-03-01T07:14:43.694Z,1004.48
2019-03-01T07:15:43.693Z,1004.48
2019-03-01T07:16:43.686Z,1004.48
2019-03-01T07:17:43.687Z,1004.53
2019-03-01T07:18:43.686Z,1004.53
2019-03-01T07:19:43.692Z,1004.55
2019-03-01T07:20:43.669Z,1004.57
2019-03-01T07:21:43.665Z,1004.58
2019-03-01T07:22:43.659Z,1004.58
2019-03-01T07:23:43.654Z,1004.66
2019-03-01T07:24:43.653Z,1004.63
2019-03-01T07:25:43.646Z,1004.63
2019-03-01T07:26:43.637Z,1004.63
2019-03-01T07:27:43.641Z,1004.65
2019-03-01T07:28:43.929Z,1004.66
2019-03-01T07:29:43.644Z,1004.72
2019-03-01T07:30:43.621Z,1004.70
2019-03-01T07:31:43.617Z,1004.68
2019-03-01T07:32:43.610Z,1004.71
2019-03-01T07:33:43.607Z,1004.71
2019-03-01T07:34:43.611Z,1004.75
2019-03-01T07:35:43.598Z,1004.75
2019-03-01T07:36:43.592Z,1004.73
2019-03-01T07:37:43.589Z,1004.76
2019-03-01T07:38:43.582Z,1004.78
2019-03-01T07:39:43.580Z,1004.79
2019-03-01T07:40:43.574Z,1004.82
2019-03-01T07:41:43.570Z,1004.80
2019-03-01T07:42:43.564Z,1004.79
2019-03-01T07:43:43.562Z,1004.83
2019-03-01T07:44:43.561Z,1004.81
2019-03-01T07:45:43.552Z,1004.85
2019-03-01T07:46:52.709Z,1004.81
2019-03-01T07:47:43.544Z,1004.83
2019-03-01T07:48:43.538Z,1004.82
2019-03-01T07:49:43.541Z,1004.83
2019-03-01T07:50:43.527Z,1004.86
2019-03-01T07:51:43.536Z,1004.84
2019-03-01T07:52:43.522Z,1004.86
2019-03-01T07:53:43.517Z,1004.88
2019-03-01T07:54:43.510Z,1004.89
2019-03-01T07:55:44.122Z,1004.89
2019-03-01T07:56:43.500Z,1004.90
2019-03-01T07:57:46.618Z,1004.90
2019-03-01T07:58:43.792Z,1004.95
2019-03-01T07:59:43.489Z,1004.93
2019-03-01T08:00:46.519Z,1004.98
2019-03-01T08:01:43.479Z,1004.99
2019-03-01T08:02:45.551Z,1005.03
2019-03-01T08:03:49.300Z,1005.05
2019-03-01T08:04:43.464Z,1005.05
2019-03-01T08:05:43.460Z,1005.06
2019-03-01T08:06:45.602Z,1005.11
2019-03-01T08:07:43.451Z,1005.09
2019-03-01T08:08:43.448Z,1005.11
2019-03-01T08:09:44.846Z,1005.15
2019-03-01T08:10:43.439Z,1005.17
2019-03-01T08:11:43.440Z,1005.14
2019-03-01T08:12:43.531Z,1005.16
2019-03-01T08:13:43.425Z,1005.17
2019-03-01T08:14:43.420Z,1005.17
2019-03-01T08:15:45.010Z,1005.19
2019-03-01T08:16:43.409Z,1005.20
2019-03-01T08:17:43.406Z,1005.18
2019-03-01T08:18:44.275Z,1005.22
2019-03-01T08:19:45.545Z,1005.22
2019-03-01T08:20:43.391Z,1005.25
2019-03-01T08:21:45.899Z,1005.23
2019-03-01T08:22:48.464Z,1005.26
2019-03-01T08:23:43.384Z,1005.28
2019-03-01T08:24:46.591Z,1005.28
2019-03-01T08:25:43.369Z,1005.34
2019-03-01T08:26:43.363Z,1005.32
2019-03-01T08:27:46.350Z,1005.33
2019-03-01T08:28:43.654Z,1005.33
2019-03-01T08:29:43.351Z,1005.39
2019-03-01T08:30:45.758Z,1005.39
2019-03-01T08:31:43.343Z,1005.39
2019-03-01T08:32:43.334Z,1005.42
2019-03-01T08:33:43.663Z,1005.42
2019-03-01T08:34:43.325Z,1005.42
2019-03-01T08:35:43.324Z,1005.42
2019-03-01T08:36:43.674Z,1005.46
2019-03-01T08:37:43.313Z,1005.47
2019-03-01T08:38:43.307Z,1005.48
2019-03-01T08:39:43.305Z,1005.48
2019-03-01T08:40:43.297Z,1005.49
2019-03-01T08:41:43.294Z,1005.48
2019-03-01T08:42:43.289Z,1005.51
2019-03-01T08:43:44.713Z,1005.54
2019-03-01T08:44:43.279Z,1005.52
2019-03-01T08:45:43.275Z,1005.54
2019-03-01T08:46:45.559Z,1005.53
2019-03-01T08:47:43.267Z,1005.54
2019-03-01T08:48:43.260Z,1005.55
2019-03-01T08:49:43.256Z,1005.50
2019-03-01T08:50:43.250Z,1005.51
2019-03-01T08:51:43.250Z,1005.51
2019-03-01T08:52:43.247Z,1005.56
2019-03-01T08:53:43.237Z,1005.59
2019-03-01T08:54:43.232Z,1005.61
2019-03-01T08:55:43.242Z,1005.63
2019-03-01T08:56:46.478Z,1005.62
2019-03-01T08:57:44.429Z,1005.64
2019-03-01T08:58:43.211Z,1005.64
2019-03-01T08:59:43.209Z,1005.68
2019-03-01T09:00:43.202Z,1005.67
2019-03-01T09:01:45.011Z,1005.69
2019-03-01T09:02:43.192Z,1005.69
2019-03-01T09:03:43.190Z,1005.64
2019-03-01T09:04:50.669Z,1005.68
2019-03-01T09:05:43.180Z,1005.69
2019-03-01T09:06:43.174Z,1005.71
2019-03-01T09:07:43.173Z,1005.69
2019-03-01T09:08:46.041Z,1005.71
2019-03-01T09:09:43.160Z,1005.71
2019-03-01T09:10:43.155Z,1005.73
2019-03-01T09:11:44.610Z,1005.74
2019-03-01T09:12:43.144Z,1005.74
2019-03-01T09:13:43.141Z,1005.74
2019-03-01T09:14:43.135Z,1005.70
2019-03-01T09:15:46.150Z,1005.70
2019-03-01T09:17:43.121Z,1005.75
2019-03-01T09:18:43.117Z,1005.73
2019-03-01T09:19:43.110Z,1005.72
2019-03-01T09:20:43.111Z,1005.74
2019-03-01T09:21:44.700Z,1005.80
2019-03-01T09:22:43.108Z,1005.80
2019-03-01T09:23:43.092Z,1005.81
2019-03-01T09:24:43.089Z,1005.82
2019-03-01T09:25:44.648Z,1005.87
2019-03-01T09:26:43.079Z,1005.87
2019-03-01T09:27:43.078Z,1005.89
2019-03-01T09:28:43.434Z,1005.87
2019-03-01T09:29:43.065Z,1005.87
2019-03-01T09:30:43.501Z,1005.89
2019-03-01T09:31:43.053Z,1005.87
2019-03-01T09:32:43.051Z,1005.87
2019-03-01T09:33:43.045Z,1005.88
2019-03-01T09:34:43.046Z,1005.91
2019-03-01T09:35:43.964Z,1005.92
2019-03-01T09:36:43.035Z,1005.99
2019-03-01T09:37:43.026Z,1006.01
2019-03-01T09:38:43.679Z,1006.02
2019-03-01T09:39:43.018Z,1006.05
2019-03-01T09:40:43.016Z,1006.06
2019-03-01T09:41:43.008Z,1006.07
2019-03-01T09:42:43.008Z,1006.09
2019-03-01T09:43:43.000Z,1006.09
2019-03-01T09:44:42.999Z,1006.08
2019-03-01T09:45:45.754Z,1006.13
2019-03-01T09:46:42.991Z,1006.14
2019-03-01T09:47:42.988Z,1006.18
2019-03-01T09:48:45.632Z,1006.16
2019-03-01T09:49:42.981Z,1006.17
2019-03-01T09:50:42.973Z,1006.18
2019-03-01T09:51:43.740Z,1006.20
2019-03-01T09:52:42.967Z,1006.19
2019-03-01T09:53:42.962Z,1006.23
2019-03-01T09:54:42.957Z,1006.23
2019-03-01T09:55:42.951Z,1006.27
2019-03-01T09:56:42.951Z,1006.26
2019-03-01T09:57:42.942Z,1006.27
2019-03-01T09:58:43.041Z,1006.30
2019-03-01T09:59:42.935Z,1006.29
2019-03-01T10:00:42.933Z,1006.30
2019-03-01T10:01:42.985Z,1006.27
2019-03-01T10:02:42.924Z,1006.29
2019-03-01T10:03:42.919Z,1006.26
2019-03-01T10:04:42.917Z,1006.32
2019-03-01T10:05:42.910Z,1006.33
2019-03-01T10:06:42.910Z,1006.32
2019-03-01T10:07:42.903Z,1006.32
2019-03-01T10:08:42.902Z,1006.34
2019-03-01T10:09:42.898Z,1006.37
2019-03-01T10:10:42.894Z,1006.33
2019-03-01T10:11:42.888Z,1006.36
2019-03-01T10:12:42.893Z,1006.37
2019-03-01T10:13:42.882Z,1006.36
2019-03-01T10:14:42.885Z,1006.36
2019-03-01T10:15:42.892Z,1006.40
2019-03-01T10:16:42.891Z,1006.43
2019-03-01T10:17:42.866Z,1006.49
2019-03-01T10:18:42.863Z,1006.53
2019-03-01T10:19:42.858Z,1006.56
2019-03-01T10:20:42.856Z,1006.58
2019-03-01T10:21:42.851Z,1006.66
2019-03-01T10:22:42.849Z,1006.68
2019-03-01T10:23:42.865Z,1006.69
2019-03-01T10:24:42.841Z,1006.67
2019-03-01T10:25:42.835Z,1006.74
2019-03-01T10:26:42.840Z,1006.72
2019-03-01T10:27:42.838Z,1006.75
2019-03-01T10:28:42.825Z,1006.76
2019-03-01T10:29:42.817Z,1006.77
2019-03-01T10:30:42.814Z,1006.81
2019-03-01T10:31:42.808Z,1006.81
2019-03-01T10:32:42.805Z,1006.79
2019-03-01T10:33:42.798Z,1006.84
2019-03-01T10:34:42.795Z,1006.85
2019-03-01T10:35:42.802Z,1006.83
2019-03-01T10:36:46.621Z,1006.91
2019-03-01T10:37:42.778Z,1006.89
2019-03-01T10:38:42.776Z,1006.92
2019-03-01T10:39:42.769Z,1006.93
2019-03-01T10:40:42.766Z,1006.92
2019-03-01T10:41:42.763Z,1006.95
2019-03-01T10:42:42.755Z,1006.96
2019-03-01T10:43:42.748Z,1006.93
2019-03-01T10:44:42.746Z,1006.98
2019-03-01T10:45:42.756Z,1007.00
2019-03-01T10:46:42.739Z,1007.03
2019-03-01T10:47:43.029Z,1007.04
2019-03-01T10:48:42.737Z,1007.05
2019-03-01T10:49:42.717Z,1007.06
2019-03-01T10:50:42.714Z,1007.10
2019-03-01T10:51:42.707Z,1007.08
2019-03-01T10:52:42.704Z,1007.13
2019-03-01T10:53:42.747Z,1007.15
2019-03-01T10:54:42.693Z,1007.16
2019-03-01T10:55:42.687Z,1007.25
2019-03-01T10:56:42.683Z,1007.26
2019-03-01T10:57:42.674Z,1007.27
2019-03-01T10:58:42.671Z,1007.24
2019-03-01T10:59:42.666Z,1007.28
2019-03-01T11:00:42.659Z,1007.30
2019-03-01T11:01:42.655Z,1007.33
2019-03-01T11:02:42.648Z,1007.36
2019-03-01T11:03:42.645Z,1007.38
2019-03-01T11:04:42.637Z,1007.39
2019-03-01T11:05:42.633Z,1007.42
2019-03-01T11:06:42.625Z,1007.41
2019-03-01T11:07:42.625Z,1007.40
2019-03-01T11:08:42.616Z,1007.48
2019-03-01T11:09:42.610Z,1007.48
2019-03-01T11:10:42.648Z,1007.48
2019-03-01T11:11:42.599Z,1007.53
2019-03-01T11:12:42.591Z,1007.51
2019-03-01T11:13:42.588Z,1007.57
2019-03-01T11:14:42.582Z,1007.61
2019-03-01T11:15:42.575Z,1007.66
2019-03-01T11:16:42.571Z,1007.65
2019-03-01T11:17:42.564Z,1007.69
2019-03-01T11:18:42.558Z,1007.65
2019-03-01T11:19:42.552Z,1007.68
2019-03-01T11:20:42.544Z,1007.73
2019-03-01T11:21:42.539Z,1007.73
2019-03-01T11:22:42.535Z,1007.77
2019-03-01T11:23:42.530Z,1007.78
2019-03-01T11:24:42.520Z,1007.83
2019-03-01T11:25:42.516Z,1007.82
2019-03-01T11:26:42.508Z,1007.85
2019-03-01T11:27:42.504Z,1007.83
2019-03-01T11:28:42.496Z,1007.89
2019-03-01T11:29:42.492Z,1007.84
2019-03-01T11:30:42.483Z,1007.85
2019-03-01T11:31:42.480Z,1007.86
2019-03-01T11:32:42.470Z,1007.84
2019-03-01T11:33:42.465Z,1007.83
2019-03-01T11:34:42.457Z,1007.81
2019-03-01T11:35:42.456Z,1007.86
2019-03-01T11:36:42.446Z,1007.81
2019-03-01T11:37:42.441Z,1007.81
2019-03-01T11:38:42.433Z,1007.87
2019-03-01T11:39:42.431Z,1007.89
2019-03-01T11:40:42.419Z,1007.88
2019-03-01T11:41:42.418Z,1007.91
2019-03-01T11:42:42.406Z,1007.92
2019-03-01T11:43:42.402Z,1007.89
2019-03-01T11:44:42.393Z,1007.92
2019-03-01T11:45:42.389Z,1007.91
2019-03-01T11:46:42.385Z,1007.90
2019-03-01T11:47:42.377Z,1007.94
2019-03-01T11:48:42.368Z,1007.93
2019-03-01T11:49:42.364Z,1007.92
2019-03-01T11:50:42.353Z,1007.96
2019-03-01T11:51:42.349Z,1008.02
2019-03-01T11:52:42.341Z,1007.99
2019-03-01T11:53:44.957Z,1008.03
2019-03-01T11:54:42.328Z,1008.04
2019-03-01T11:55:42.326Z,1008.05
2019-03-01T11:56:42.316Z,1008.13
2019-03-01T11:57:42.313Z,1008.11
2019-03-01T11:58:42.301Z,1008.10
2019-03-01T11:59:42.297Z,1008.18
2019-03-01T12:00:51.773Z,1008.14
2019-03-01T12:01:42.283Z,1008.14
2019-03-01T12:02:42.274Z,1008.17
2019-03-01T12:03:42.271Z,1008.23
2019-03-01T12:04:42.514Z,1008.19
2019-03-01T12:05:42.257Z,1008.27
2019-03-01T12:09:07.929Z,1008.17
2019-03-01T12:10:07.925Z,1008.22
2019-03-01T12:11:07.915Z,1008.20
2019-03-01T12:12:07.910Z,1008.25